Time;durP1;ratioP1;P1;durP2;ratioP2;P2;SDS_P1;SDS_P2;PMS_P1;PMS_P2;Temp;Humidity;BMP_temperature;BMP_pressure;BME280_temperature;BME280_humidity;BME280_pressure;Samples;Min_cycle;Max_cycle;Signal;HPM_P1;HPM_P2
2021/03/01 00:04:23;;;;;;;1.40;1.17;;;15.70;57.00;;;;;;5207971;23;19922;-62
2021/03/01 00:06:49;;;;;;;3.15;1.40;;;15.60;57.60;;;;;;4972987;28;20464;-63
2021/03/01 00:09:14;;;;;;;2.78;1.73;;;15.70;57.70;;;;;;4973238;28;20053;-60
2021/03/01 00:11:40;;;;;;;1.35;1.25;;;15.60;57.60;;;;;;4972835;28;20078;-60
2021/03/01 00:14:05;;;;;;;1.67;1.58;;;15.60;57.70;;;;;;4973037;28;20023;-62
2021/03/01 00:16:31;;;;;;;1.27;1.17;;;15.40;57.60;;;;;;4972793;28;20027;-60
2021/03/01 00:18:56;;;;;;;1.70;1.60;;;15.60;57.70;;;;;;4972795;28;20547;-60
2021/03/01 00:21:22;;;;;;;1.42;1.33;;;15.60;57.80;;;;;;4972844;28;20043;-60
2021/03/01 00:23:48;;;;;;;1.92;1.30;;;15.60;57.80;;;;;;4972774;28;20019;-60
2021/03/01 00:26:14;;;;;;;2.78;1.77;;;15.60;57.80;;;;;;4972794;28;20477;-60
2021/03/01 00:28:40;;;;;;;1.45;1.35;;;15.50;57.70;;;;;;4972766;28;20058;-60
2021/03/01 00:31:06;;;;;;;2.33;1.30;;;15.50;57.70;;;;;;4972681;28;20421;-60
2021/03/01 00:33:32;;;;;;;2.55;1.30;;;15.80;57.90;;;;;;4955417;28;20054;-61
2021/03/01 00:35:57;;;;;;;1.20;1.10;;;15.50;57.80;;;;;;4955436;28;20027;-60
2021/03/01 00:38:23;;;;;;;1.60;1.45;;;15.50;57.80;;;;;;4972965;28;20023;-60
2021/03/01 00:40:49;;;;;;;1.23;1.13;;;15.50;57.90;;;;;;4972592;28;20387;-60
2021/03/01 00:43:14;;;;;;;2.03;1.40;;;15.40;57.80;;;;;;4972816;28;20030;-60
2021/03/01 00:45:40;;;;;;;1.58;1.10;;;15.40;57.80;;;;;;4972340;28;20385;-60
2021/03/01 00:48:06;;;;;;;1.48;1.30;;;15.40;57.90;;;;;;4972864;28;20019;-60
2021/03/01 00:50:31;;;;;;;1.60;1.50;;;15.40;57.90;;;;;;4972676;28;20521;-60
2021/03/01 00:52:57;;;;;;;1.63;1.35;;;15.40;57.90;;;;;;4972613;28;20043;-60
2021/03/01 00:55:22;;;;;;;1.38;1.00;;;15.60;78.30;;;;;;4972507;28;20046;-60
2021/03/01 00:57:48;;;;;;;1.30;1.20;;;15.40;57.90;;;;;;4973119;28;20022;-61
2021/03/01 01:00:16;;;;;;;1.67;1.25;;;15.40;78.40;;;;;;4976076;28;20116;-61
2021/03/01 01:02:42;;;;;;;1.40;1.30;;;15.40;58.00;;;;;;4976167;28;20023;-61
2021/03/01 01:05:08;;;;;;;1.85;1.35;;;15.40;58.00;;;;;;4976978;28;20065;-61
2021/03/01 01:07:34;;;;;;;2.20;1.60;;;15.30;57.90;;;;;;4975921;28;20023;-61
2021/03/01 01:09:59;;;;;;;2.15;1.83;;;15.30;57.90;;;;;;4975775;28;20035;-60
2021/03/01 01:12:25;;;;;;;1.60;1.20;;;15.30;58.00;;;;;;4975770;28;20126;-61
2021/03/01 01:14:51;;;;;;;2.17;1.75;;;15.30;58.00;;;;;;4975999;28;20022;-60
2021/03/01 01:17:17;;;;;;;1.58;1.48;;;15.30;58.00;;;;;;4975853;28;20038;-61
2021/03/01 01:19:42;;;;;;;2.45;1.70;;;15.30;58.00;;;;;;4975784;28;20026;-60
2021/03/01 01:22:08;;;;;;;1.60;1.35;;;15.30;58.00;;;;;;4975701;28;20062;-61
2021/03/01 01:24:33;;;;;;;1.77;1.63;;;15.30;58.00;;;;;;4975887;28;20034;-61
2021/03/01 01:26:59;;;;;;;2.67;1.60;;;15.20;58.00;;;;;;4975710;28;20066;-61
2021/03/01 01:29:24;;;;;;;1.63;1.50;;;15.30;58.00;;;;;;4975560;28;20082;-60
2021/03/01 01:31:50;;;;;;;1.83;1.40;;;15.20;58.00;;;;;;4975634;28;20031;-60
2021/03/01 01:34:16;;;;;;;2.17;1.20;;;15.40;58.20;;;;;;4975539;28;20046;-60
2021/03/01 01:36:41;;;;;;;1.90;1.67;;;15.20;58.10;;;;;;4975326;28;20536;-60
2021/03/01 01:39:07;;;;;;;2.17;1.63;;;15.20;58.10;;;;;;4975454;28;20054;-61
2021/03/01 01:41:32;;;;;;;1.58;1.40;;;15.20;58.00;;;;;;4975287;28;20023;-61
2021/03/01 01:43:58;;;;;;;1.50;1.40;;;15.20;58.00;;;;;;4975438;28;20038;-61
2021/03/01 01:46:24;;;;;;;1.73;1.52;;;15.10;58.00;;;;;;4975308;28;20023;-60
2021/03/01 01:48:49;;;;;;;1.67;1.52;;;15.10;58.10;;;;;;4957888;28;20098;-60
2021/03/01 01:51:15;;;;;;;1.52;1.42;;;15.10;58.00;;;;;;4975184;28;20027;-61
2021/03/01 01:53:40;;;;;;;1.50;1.40;;;15.20;58.10;;;;;;4975028;28;20113;-60
2021/03/01 01:56:06;;;;;;;1.60;1.35;;;15.10;58.10;;;;;;4975192;28;20118;-61
2021/03/01 01:58:32;;;;;;;1.55;1.45;;;15.10;58.10;;;;;;4957673;28;20023;-61
2021/03/01 02:00:58;;;;;;;2.35;1.77;;;15.10;58.20;;;;;;4975099;28;20501;-61
2021/03/01 02:03:39;;;;;;;2.60;1.77;;;15.10;58.10;;;;;;4976018;28;20078;-60
2021/03/01 02:06:17;;;;;;;2.08;1.60;;;15.10;58.20;;;;;;4975008;28;20082;-61
2021/03/01 02:08:52;;;;;;;1.50;1.40;;;15.00;58.10;;;;;;4974324;28;20069;-60
2021/03/01 02:11:40;;;;;;;1.70;1.60;;;15.00;58.20;;;;;;4974309;28;20041;-60
2021/03/01 02:14:21;;;;;;;1.73;1.63;;;15.00;58.10;;;;;;4974746;28;20026;-61
2021/03/01 02:16:47;;;;;;;1.70;1.58;;;15.00;58.10;;;;;;4974748;28;20062;-61
2021/03/01 02:19:14;;;;;;;1.73;1.63;;;15.00;58.10;;;;;;4957383;28;20051;-61
2021/03/01 02:21:46;;;;;;;2.10;1.90;;;15.00;58.10;;;;;;4974478;28;20034;-61
2021/03/01 02:24:40;;;;;;;2.00;1.80;;;14.70;78.10;;;;;;4974635;28;20026;-60
2021/03/01 02:27:07;;;;;;;2.88;1.92;;;15.00;58.20;;;;;;4974817;28;20027;-61
2021/03/01 02:29:34;;;;;;;1.45;1.35;;;15.00;58.20;;;;;;4974581;28;20029;-61
2021/03/01 02:32:02;;;;;;;2.72;2.20;;;15.00;58.30;;;;;;4974420;28;20039;-60
2021/03/01 02:34:37;;;;;;;2.75;2.05;;;14.90;58.20;;;;;;4974548;28;20053;-61
2021/03/01 02:37:13;;;;;;;3.05;1.90;;;14.90;77.80;;;;;;4957056;28;20030;-60
2021/03/01 02:39:44;;;;;;;1.80;1.60;;;14.90;58.20;;;;;;4974359;28;20019;-61
2021/03/01 02:42:14;;;;;;;2.30;1.95;;;14.90;58.20;;;;;;4974381;28;20030;-60
2021/03/01 02:44:41;;;;;;;2.13;1.92;;;14.90;58.30;;;;;;4974328;28;20549;-60
2021/03/01 02:47:07;;;;;;;2.58;1.92;;;14.90;58.30;;;;;;4974344;28;20039;-61
2021/03/01 02:49:34;;;;;;;3.30;2.10;;;14.90;58.30;;;;;;4974287;28;20381;-60
2021/03/01 02:52:01;;;;;;;3.00;2.70;;;14.90;58.20;;;;;;4974460;28;20580;-61
2021/03/01 02:54:28;;;;;;;2.65;1.98;;;14.90;58.30;;;;;;4974261;28;20074;-60
2021/03/01 02:56:56;;;;;;;2.38;1.90;;;14.90;58.30;;;;;;4974033;28;20110;-60
2021/03/01 02:59:24;;;;;;;2.10;1.90;;;14.80;58.30;;;;;;4974246;28;20552;-60
2021/03/01 03:01:51;;;;;;;3.40;2.10;;;14.90;58.30;;;;;;4973975;28;20393;-61
2021/03/01 03:04:17;;;;;;;2.75;2.30;;;14.80;58.20;;;;;;4974949;28;20258;-60
2021/03/01 03:06:44;;;;;;;2.53;2.03;;;14.70;58.20;;;;;;4973870;28;20070;-61
2021/03/01 03:09:12;;;;;;;4.00;2.47;;;14.80;58.30;;;;;;4974071;28;20397;-60
2021/03/01 03:11:40;;;;;;;2.63;2.42;;;14.70;58.20;;;;;;4973774;28;20042;-61
2021/03/01 03:14:08;;;;;;;2.70;2.28;;;14.70;58.20;;;;;;4973977;28;20367;-61
2021/03/01 03:16:35;;;;;;;2.42;1.95;;;14.80;58.30;;;;;;4973931;28;20022;-61
2021/03/01 03:19:03;;;;;;;3.28;2.15;;;14.90;78.70;;;;;;4973723;28;20026;-61
2021/03/01 03:21:29;;;;;;;3.13;2.28;;;14.70;58.20;;;;;;4973362;28;20022;-61
2021/03/01 03:23:55;;;;;;;3.08;2.10;;;14.80;58.30;;;;;;4973588;28;20042;-60
2021/03/01 03:26:21;;;;;;;3.38;2.38;;;14.70;58.20;;;;;;4973276;28;20113;-60
2021/03/01 03:28:47;;;;;;;2.63;2.20;;;14.70;58.30;;;;;;4973548;28;20034;-60
2021/03/01 03:31:13;;;;;;;2.47;2.28;;;14.70;58.30;;;;;;4973239;28;20031;-60
2021/03/01 03:33:40;;;;;;;2.42;2.22;;;14.70;58.30;;;;;;4956025;28;20478;-60
2021/03/01 03:36:07;;;;;;;2.78;2.47;;;14.70;58.40;;;;;;4973194;28;20097;-60
2021/03/01 03:39:16;;;;;;;2.60;2.33;;;14.70;58.30;;;;;;4973358;28;20520;-60
2021/03/01 03:41:43;;;;;;;2.67;2.30;;;14.70;58.30;;;;;;4970208;28;20042;-60
2021/03/01 03:44:11;;;;;;;3.70;2.45;;;14.70;58.30;;;;;;4973581;28;20050;-60
2021/03/01 03:46:39;;;;;;;3.15;2.80;;;15.00;58.50;;;;;;4972984;28;20018;-60
2021/03/01 03:49:08;;;;;;;3.33;2.15;;;14.70;57.80;;;;;;4973432;28;20089;-60
2021/03/01 03:51:35;;;;;;;2.30;2.13;;;14.60;58.40;;;;;;4973118;28;20092;-60
2021/03/01 03:54:13;;;;;;;2.42;2.22;;;14.50;58.30;;;;;;4973066;28;20031;-60
2021/03/01 03:56:40;;;;;;;2.45;2.25;;;14.70;58.40;;;;;;4955590;28;20025;-61
2021/03/01 03:59:10;;;;;;;3.42;2.20;;;14.60;58.30;;;;;;4971797;28;20392;-60
2021/03/01 04:01:38;;;;;;;2.93;2.60;;;14.70;58.40;;;;;;4973150;28;20051;-60
2021/03/01 04:04:06;;;;;;;3.28;2.55;;;14.60;58.40;;;;;;4973929;28;20125;-60
2021/03/01 04:06:37;;;;;;;2.83;2.53;;;14.60;58.40;;;;;;4972978;28;20018;-60
2021/03/01 04:09:06;;;;;;;;;;;14.60;58.50;;;;;;4973386;28;20034;-60
2021/03/01 04:11:33;;;;;;;3.05;2.20;;;14.60;58.40;;;;;;4955627;28;19914;-60
2021/03/01 04:14:00;;;;;;;2.63;2.38;;;14.60;58.50;;;;;;4973131;28;20031;-60
2021/03/01 04:16:29;;;;;;;4.38;3.03;;;14.60;58.50;;;;;;4972950;28;20110;-60
2021/03/01 04:19:01;;;;;;;3.72;2.55;;;14.60;58.50;;;;;;4973228;28;20027;-60
2021/03/01 04:21:29;;;;;;;3.92;2.65;;;14.60;58.50;;;;;;4972912;28;20465;-60
2021/03/01 04:23:56;;;;;;;4.13;2.90;;;14.30;58.40;;;;;;4973095;28;20034;-60
2021/03/01 04:26:23;;;;;;;3.53;2.72;;;14.30;58.40;;;;;;4955403;28;20113;-60
2021/03/01 04:28:57;;;;;;;4.15;2.95;;;14.50;58.50;;;;;;4972620;28;20027;-60
2021/03/01 04:31:24;;;;;;;3.40;2.65;;;14.50;58.50;;;;;;4955260;28;20038;-60
2021/03/01 04:33:52;;;;;;;3.88;2.35;;;14.50;58.50;;;;;;4975225;28;20123;-60
2021/03/01 04:36:18;;;;;;;3.80;3.05;;;14.40;78.80;;;;;;4976604;28;20101;-60
2021/03/01 04:38:44;;;;;;;4.32;3.03;;;14.50;58.50;;;;;;4976473;28;20066;-60
2021/03/01 04:41:11;;;;;;;4.63;3.28;;;14.50;58.60;;;;;;4976411;28;20090;-61
2021/03/01 04:43:38;;;;;;;3.70;3.17;;;14.50;58.60;;;;;;4976294;28;20030;-60
2021/03/01 04:46:06;;;;;;;4.32;2.88;;;14.30;58.40;;;;;;4976259;28;20422;-60
2021/03/01 04:48:32;;;;;;;4.45;3.42;;;14.50;58.60;;;;;;4976497;28;20031;-60
2021/03/01 04:50:58;;;;;;;5.18;3.60;;;14.50;58.60;;;;;;4976386;28;20502;-60
2021/03/01 04:53:25;;;;;;;5.47;3.70;;;14.50;58.60;;;;;;4976395;28;20375;-60
2021/03/01 04:55:52;;;;;;;3.88;3.25;;;14.50;58.60;;;;;;4976102;28;20026;-60
2021/03/01 04:58:20;;;;;;;3.85;3.33;;;14.30;58.50;;;;;;4976044;28;20489;-60
2021/03/01 05:00:46;;;;;;;3.78;3.22;;;14.40;58.60;;;;;;4976008;28;20033;-60
2021/03/01 05:03:12;;;;;;;4.03;3.25;;;14.40;58.60;;;;;;4976177;28;20031;-60
2021/03/01 05:05:38;;;;;;;4.07;3.30;;;14.40;58.70;;;;;;4976830;28;20445;-60
2021/03/01 05:08:15;;;;;;;3.63;2.92;;;14.40;58.70;;;;;;4975943;28;20035;-60
2021/03/01 05:10:41;;;;;;;4.97;3.63;;;14.40;58.70;;;;;;4975762;28;20023;-60
2021/03/01 05:13:07;;;;;;;6.20;4.70;;;14.40;58.70;;;;;;4975844;28;20034;-60
2021/03/01 05:15:32;;;;;;;5.70;3.97;;;14.40;58.70;;;;;;4976152;28;20042;-61
2021/03/01 05:17:58;;;;;;;4.50;3.35;;;14.40;58.70;;;;;;4975778;28;20537;-60
2021/03/01 05:20:24;;;;;;;4.13;3.30;;;14.40;58.70;;;;;;4976003;28;20023;-61
2021/03/01 05:22:50;;;;;;;5.60;4.18;;;14.40;58.80;;;;;;4975666;28;20636;-60
2021/03/01 05:25:16;;;;;;;3.83;3.30;;;14.40;58.80;;;;;;4975867;28;20058;-60
2021/03/01 05:27:41;;;;;;;4.20;3.72;;;14.40;58.80;;;;;;4975568;28;20106;-60
2021/03/01 05:30:09;;;;;;;3.92;3.50;;;14.10;79.00;;;;;;4975585;28;20034;-60
2021/03/01 05:32:35;;;;;;;4.90;3.60;;;14.40;58.80;;;;;;4975416;28;20102;-61
2021/03/01 05:35:01;;;;;;;4.55;3.55;;;14.40;79.20;;;;;;4975469;28;20389;-59
2021/03/01 05:37:26;;;;;;;7.10;4.30;;;14.40;58.70;;;;;;4975689;28;20022;-60
2021/03/01 05:39:52;;;;;;;5.80;3.83;;;14.40;58.70;;;;;;4975619;28;20062;-60
2021/03/01 05:42:19;;;;;;;6.55;4.32;;;14.40;58.70;;;;;;4975363;28;20053;-60
2021/03/01 05:44:45;;;;;;;5.15;4.18;;;14.40;58.70;;;;;;4975384;28;20023;-62
2021/03/01 05:47:11;;;;;;;5.15;4.07;;;14.50;58.80;;;;;;4975166;28;20529;-61
2021/03/01 05:49:41;;;;;;;5.35;4.25;;;14.50;58.90;;;;;;4975330;28;20157;-61
2021/03/01 05:52:09;;;;;;;4.97;4.20;;;14.50;58.90;;;;;;4975331;28;20074;-62
2021/03/01 05:54:36;;;;;;;5.82;3.88;;;14.50;58.90;;;;;;4975347;28;20023;-60
2021/03/01 05:57:05;;;;;;;5.20;4.00;;;14.50;58.90;;;;;;4974998;28;20023;-61
2021/03/01 05:59:32;;;;;;;5.30;3.85;;;14.50;58.90;;;;;;4974960;28;20027;-60
2021/03/01 06:01:58;;;;;;;6.57;3.85;;;14.30;79.40;;;;;;4975155;28;20540;-61
2021/03/01 06:04:30;;;;;;;5.00;3.63;;;14.60;59.40;;;;;;4975641;28;20062;-61
2021/03/01 06:06:56;;;;;;;3.90;3.15;;;14.50;59.50;;;;;;4974721;28;20430;-61
2021/03/01 06:09:22;;;;;;;4.90;3.67;;;14.70;59.80;;;;;;4974791;28;20019;-61
2021/03/01 06:11:48;;;;;;;4.18;3.25;;;14.80;59.90;;;;;;4974902;28;20035;-61
2021/03/01 06:14:15;;;;;;;4.70;3.25;;;15.40;80.40;;;;;;4974731;28;20385;-61
2021/03/01 06:17:12;;;;;;;4.68;3.20;;;15.10;59.60;;;;;;4974629;28;20035;-61
2021/03/01 06:19:52;;;;;;;4.53;2.83;;;15.20;59.30;;;;;;4957222;28;20039;-61
2021/03/01 06:22:23;;;;;;;3.92;3.05;;;15.30;59.30;;;;;;4974766;28;20030;-61
2021/03/01 06:25:08;;;;;;;3.05;2.75;;;15.30;59.30;;;;;;4974828;28;20097;-61
2021/03/01 06:27:55;;;;;;;5.22;3.40;;;15.30;59.30;;;;;;4957075;28;20037;-61
2021/03/01 06:30:25;;;;;;;3.78;3.15;;;15.40;59.40;;;;;;4974511;28;20038;-61
2021/03/01 06:33:12;;;;;;;4.47;3.50;;;15.40;59.40;;;;;;4974247;28;20039;-61
2021/03/01 06:35:43;;;;;;;3.85;3.08;;;15.50;59.30;;;;;;4974281;28;20389;-60
2021/03/01 06:38:34;;;;;;;3.05;2.75;;;15.50;59.20;;;;;;4974376;28;20109;-61
2021/03/01 06:41:19;;;;;;;3.75;3.20;;;15.60;59.10;;;;;;4956770;28;20400;-61
2021/03/01 06:44:00;;;;;;;4.50;3.78;;;15.60;59.10;;;;;;4974499;28;20355;-60
2021/03/01 06:46:29;;;;;;;4.70;3.60;;;15.30;58.80;;;;;;4974096;28;20469;-61
2021/03/01 06:48:55;;;;;;;7.80;4.10;;;15.60;58.90;;;;;;4974067;28;20030;-60
2021/03/01 06:51:22;;;;;;;4.90;3.85;;;15.40;58.90;;;;;;4974038;28;20481;-60
2021/03/01 06:54:00;;;;;;;5.97;3.60;;;15.60;59.10;;;;;;4974046;28;20014;-61
2021/03/01 06:56:37;;;;;;;4.35;3.63;;;15.50;59.20;;;;;;4973411;28;20465;-61
2021/03/01 06:59:16;;;;;;;5.00;4.20;;;15.50;59.00;;;;;;4974311;28;20019;-60
2021/03/01 07:01:56;;;;;;;4.15;3.53;;;15.50;58.80;;;;;;4974348;28;20050;-60
2021/03/01 07:04:26;;;;;;;8.50;4.53;;;15.50;58.90;;;;;;4975330;28;20066;-61
2021/03/01 07:06:53;;;;;;;;;;;15.50;58.70;;;;;;4974440;28;20505;-61
2021/03/01 07:09:21;;;;;;;7.32;4.53;;;15.50;58.60;;;;;;4973839;28;19910;-60
2021/03/01 07:11:47;;;;;;;6.80;4.03;;;15.50;58.50;;;;;;4973976;28;20031;-60
2021/03/01 07:14:15;;;;;;;8.95;4.50;;;15.50;58.60;;;;;;4973629;28;20041;-60
2021/03/01 07:16:46;;;;;;;5.00;4.50;;;15.50;58.40;;;;;;4973801;28;20031;-60
2021/03/01 07:19:18;;;;;;;5.65;4.03;;;15.50;58.40;;;;;;4974102;28;20489;-60
2021/03/01 07:21:47;;;;;;;4.90;3.80;;;15.50;58.30;;;;;;4956106;28;20023;-60
2021/03/01 07:24:17;;;;;;;6.38;4.15;;;15.50;58.20;;;;;;4973663;28;20030;-61
2021/03/01 07:26:44;;;;;;;5.00;3.95;;;15.60;58.20;;;;;;4956217;28;20027;-61
2021/03/01 07:29:15;;;;;;;5.63;3.95;;;15.60;58.30;;;;;;4973483;28;20126;-62
2021/03/01 07:31:46;;;;;;;4.50;3.55;;;15.60;58.10;;;;;;4973499;28;20037;-60
2021/03/01 07:34:11;;;;;;;5.80;3.90;;;15.60;58.00;;;;;;4972783;28;20023;-61
2021/03/01 07:36:37;;;;;;;6.55;4.20;;;15.60;58.10;;;;;;4973002;28;20033;-61
2021/03/01 07:39:09;;;;;;;7.65;4.20;;;15.60;58.40;;;;;;4973260;28;20035;-61
2021/03/01 07:41:35;;;;;;;5.55;4.13;;;15.60;58.50;;;;;;4973382;28;20030;-61
2021/03/01 07:44:02;;;;;;;6.60;4.43;;;15.70;58.50;;;;;;4973292;28;20417;-61
2021/03/01 07:46:33;;;;;;;8.85;5.00;;;15.70;58.40;;;;;;4973266;28;20023;-62
2021/03/01 07:48:59;;;;;;;5.55;4.95;;;15.70;58.40;;;;;;4973188;28;20385;-61
2021/03/01 07:51:46;;;;;;;8.55;4.88;;;15.70;58.40;;;;;;4973113;28;20035;-61
2021/03/01 07:54:50;;;;;;;7.18;4.60;;;15.80;58.40;;;;;;4973236;28;20038;-62
2021/03/01 07:57:16;;;;;;;8.00;4.43;;;15.80;58.40;;;;;;4955966;28;20030;-61
2021/03/01 07:59:41;;;;;;;8.40;4.95;;;15.80;58.50;;;;;;4973167;28;20030;-63
2021/03/01 08:02:15;;;;;;;7.75;5.13;;;15.70;58.50;;;;;;4973199;28;20033;-62
2021/03/01 08:04:41;;;;;;;6.93;5.03;;;15.60;58.40;;;;;;4973635;28;20050;-61
2021/03/01 08:07:07;;;;;;;8.90;4.82;;;15.60;58.40;;;;;;4972978;28;20033;-62
2021/03/01 08:09:45;;;;;;;7.38;4.85;;;15.60;58.40;;;;;;4976856;28;20050;-61
2021/03/01 08:12:13;;;;;;;5.55;4.20;;;15.60;58.60;;;;;;4977188;28;20085;-62
2021/03/01 08:14:54;;;;;;;7.47;4.22;;;15.50;58.40;;;;;;4977127;28;20018;-61
2021/03/01 08:17:26;;;;;;;6.60;5.18;;;15.50;58.50;;;;;;4977207;28;20050;-61
2021/03/01 08:20:14;;;;;;;6.82;4.93;;;15.40;58.50;;;;;;4976948;28;20454;-62
2021/03/01 08:23:02;;;;;;;7.38;4.38;;;15.40;58.50;;;;;;4976016;28;20027;-61
2021/03/01 08:25:44;;;;;;;7.35;4.55;;;15.30;58.50;;;;;;4976958;28;20118;-61
2021/03/01 08:28:22;;;;;;;7.07;4.55;;;15.30;58.40;;;;;;4976949;28;20027;-62
2021/03/01 08:30:49;;;;;;;5.85;4.22;;;15.30;58.30;;;;;;4977037;28;20027;-62
2021/03/01 08:33:15;;;;;;;7.13;4.68;;;15.30;58.40;;;;;;4977048;28;20109;-62
2021/03/01 08:35:42;;;;;;;8.48;4.80;;;15.30;58.20;;;;;;4976950;28;20026;-61
2021/03/01 08:38:11;;;;;;;7.97;4.43;;;15.30;58.00;;;;;;4976961;28;20154;-62
2021/03/01 08:40:50;;;;;;;5.45;4.28;;;15.30;57.90;;;;;;4976775;28;20098;-62
2021/03/01 08:43:34;;;;;;;5.97;4.20;;;15.40;57.80;;;;;;4976641;28;20038;-62
2021/03/01 08:46:00;;;;;;;7.60;4.10;;;15.40;57.80;;;;;;4976996;28;20260;-62
2021/03/01 08:48:26;;;;;;;5.85;4.53;;;15.40;57.70;;;;;;4976373;28;20050;-62
2021/03/01 08:50:54;;;;;;;5.45;4.05;;;15.50;57.70;;;;;;4976384;28;20033;-62
2021/03/01 08:53:22;;;;;;;4.00;3.53;;;15.70;57.70;;;;;;4976191;28;20493;-62
2021/03/01 08:55:48;;;;;;;6.10;4.03;;;15.50;57.50;;;;;;4976401;28;20065;-61
2021/03/01 08:58:15;;;;;;;6.20;3.92;;;15.50;57.50;;;;;;4976411;28;20489;-62
2021/03/01 09:00:52;;;;;;;4.50;3.80;;;15.50;57.50;;;;;;4976027;28;20485;-62
2021/03/01 09:03:25;;;;;;;5.85;3.67;;;15.50;57.40;;;;;;4976166;28;20038;-62
2021/03/01 09:05:55;;;;;;;5.00;3.80;;;15.50;57.40;;;;;;4977271;28;20042;-62
2021/03/01 09:08:30;;;;;;;5.40;3.50;;;15.50;57.40;;;;;;4976011;28;20037;-62
2021/03/01 09:10:57;;;;;;;5.72;4.07;;;15.50;57.30;;;;;;4976099;28;20102;-62
2021/03/01 09:13:24;;;;;;;4.88;3.50;;;15.60;57.30;;;;;;4975847;28;20727;-62
2021/03/01 09:15:50;;;;;;;3.95;3.05;;;15.60;57.30;;;;;;4975993;28;20063;-62
2021/03/01 09:18:16;;;;;;;6.03;3.55;;;15.60;57.30;;;;;;4975317;28;20033;-61
2021/03/01 09:20:53;;;;;;;4.60;3.22;;;15.60;57.20;;;;;;4958291;28;20018;-62
2021/03/01 09:23:45;;;;;;;7.22;3.80;;;15.70;57.20;;;;;;4975658;28;20050;-62
2021/03/01 09:26:31;;;;;;;3.92;3.33;;;15.70;57.20;;;;;;4975610;28;20075;-62
2021/03/01 09:29:14;;;;;;;4.65;3.15;;;15.70;57.20;;;;;;4975565;28;20106;-62
2021/03/01 09:31:57;;;;;;;4.97;3.53;;;15.70;57.10;;;;;;4975617;28;20342;-62
2021/03/01 09:34:27;;;;;;;3.22;2.92;;;15.70;57.00;;;;;;4975846;28;20045;-62
2021/03/01 09:36:53;;;;;;;3.70;3.10;;;15.70;57.10;;;;;;4975953;28;20051;-62
2021/03/01 09:39:21;;;;;;;4.15;3.00;;;15.70;57.20;;;;;;4975703;28;20026;-61
2021/03/01 09:41:48;;;;;;;3.92;3.05;;;15.90;76.10;;;;;;4975521;28;20106;-62
2021/03/01 09:44:26;;;;;;;3.97;3.20;;;15.80;57.10;;;;;;4975585;28;20027;-62
2021/03/01 09:46:54;;;;;;;7.43;3.47;;;15.80;57.10;;;;;;4958145;28;20031;-61
2021/03/01 09:49:20;;;;;;;5.60;3.00;;;15.80;57.30;;;;;;4975419;28;20414;-62
2021/03/01 09:51:47;;;;;;;5.78;3.53;;;15.70;57.20;;;;;;4975329;28;20038;-61
2021/03/01 09:54:13;;;;;;;7.65;3.92;;;15.80;57.30;;;;;;4975129;28;20101;-62
2021/03/01 09:56:41;;;;;;;7.28;3.20;;;15.70;57.30;;;;;;4958304;28;20035;-62
2021/03/01 09:59:07;;;;;;;8.90;4.03;;;15.70;57.30;;;;;;4975059;28;20442;-62
2021/03/01 10:01:32;;;;;;;9.98;3.97;;;15.70;76.70;;;;;;4975107;28;20098;-62
2021/03/01 10:03:58;;;;;;;5.38;3.63;;;15.70;57.60;;;;;;4975661;28;20027;-61
2021/03/01 10:06:42;;;;;;;5.47;4.05;;;15.70;57.60;;;;;;4974841;28;20046;-62
2021/03/01 10:09:10;;;;;;;6.70;4.47;;;15.70;57.40;;;;;;4974822;28;20027;-62
2021/03/01 10:11:37;;;;;;;6.22;4.05;;;15.60;57.40;;;;;;4957416;28;20091;-63
2021/03/01 10:14:07;;;;;;;7.93;4.57;;;15.60;57.50;;;;;;4974757;28;20035;-62
2021/03/01 10:16:39;;;;;;;7.35;5.07;;;15.60;57.60;;;;;;4974849;28;20061;-62
2021/03/01 10:19:13;;;;;;;6.15;4.05;;;15.60;57.40;;;;;;4974744;28;20022;-62
2021/03/01 10:21:39;;;;;;;7.40;4.93;;;15.40;57.30;;;;;;4974517;28;20034;-62
2021/03/01 10:24:07;;;;;;;8.10;4.43;;;15.60;57.30;;;;;;4974956;28;20019;-62
2021/03/01 10:26:48;;;;;;;8.93;4.82;;;15.60;57.30;;;;;;4974410;28;20576;-63
2021/03/01 10:29:14;;;;;;;5.93;4.60;;;15.60;57.20;;;;;;4974586;28;20027;-63
2021/03/01 10:31:39;;;;;;;6.72;5.05;;;15.60;57.20;;;;;;4973382;28;20101;-63
2021/03/01 10:34:11;;;;;;;10.30;5.03;;;15.70;57.20;;;;;;4974469;28;20122;-63
2021/03/01 10:36:45;;;;;;;5.68;4.25;;;15.60;57.20;;;;;;4974408;28;20023;-63
2021/03/01 10:39:50;;;;;;;7.32;4.47;;;15.60;57.30;;;;;;4974353;28;20022;-63
2021/03/01 10:42:19;;;;;;;5.40;4.07;;;15.60;57.30;;;;;;4973488;28;20664;-63
2021/03/01 10:44:56;;;;;;;7.07;4.72;;;15.60;57.30;;;;;;4974271;28;20027;-61
2021/03/01 10:47:30;;;;;;;8.75;4.80;;;15.60;57.20;;;;;;4974047;28;20430;-62
2021/03/01 10:49:58;;;;;;;6.18;4.13;;;15.40;57.10;;;;;;4974033;28;20039;-61
2021/03/01 10:52:26;;;;;;;6.95;4.60;;;15.60;57.30;;;;;;4974177;28;20397;-61
2021/03/01 10:54:54;;;;;;;6.47;4.85;;;15.60;57.80;;;;;;4974082;28;20358;-62
2021/03/01 10:57:20;;;;;;;5.85;4.28;;;15.60;57.00;;;;;;4973761;28;20106;-59
2021/03/01 10:59:50;;;;;;;6.50;4.22;;;15.50;57.10;;;;;;4974104;28;20027;-59
2021/03/01 11:02:15;;;;;;;5.63;3.92;;;15.60;57.10;;;;;;4974081;28;20031;-59
2021/03/01 11:04:55;;;;;;;5.47;4.03;;;15.60;57.60;;;;;;4976012;28;20045;-60
2021/03/01 11:07:21;;;;;;;8.70;3.90;;;15.60;57.90;;;;;;4974085;28;20118;-61
2021/03/01 11:09:47;;;;;;;10.13;4.38;;;15.60;57.90;;;;;;4974010;28;20047;-61
2021/03/01 11:12:13;;;;;;;5.28;3.75;;;15.60;58.00;;;;;;4973665;28;20624;-61
2021/03/01 11:14:39;;;;;;;7.93;4.03;;;15.50;58.10;;;;;;4973644;28;20035;-60
2021/03/01 11:17:05;;;;;;;6.47;4.55;;;15.50;58.50;;;;;;4973821;28;20492;-61
2021/03/01 11:19:31;;;;;;;7.03;4.50;;;15.50;59.40;;;;;;4973575;28;20037;-61
2021/03/01 11:21:57;;;;;;;4.90;4.30;;;15.40;60.10;;;;;;4973638;28;20031;-61
2021/03/01 11:24:22;;;;;;;6.35;4.07;;;15.40;60.60;;;;;;4973552;28;20037;-61
2021/03/01 11:26:52;;;;;;;6.10;4.47;;;15.40;60.90;;;;;;4973323;28;20035;-61
2021/03/01 11:29:18;;;;;;;6.00;4.03;;;15.40;61.20;;;;;;4973518;28;20029;-61
2021/03/01 11:31:44;;;;;;;9.18;4.45;;;15.30;61.60;;;;;;4973187;28;20026;-61
2021/03/01 11:34:10;;;;;;;5.20;3.70;;;15.30;62.10;;;;;;4973359;28;20400;-60
2021/03/01 11:36:37;;;;;;;6.57;5.00;;;15.30;62.30;;;;;;4973401;28;20466;-61
2021/03/01 11:39:08;;;;;;;6.80;4.28;;;15.20;62.70;;;;;;4973386;28;20041;-61
2021/03/01 11:41:34;;;;;;;;;;;15.20;62.90;;;;;;4973871;28;20035;-60
2021/03/01 11:43:59;;;;;;;5.00;3.90;;;15.20;63.00;;;;;;4973206;28;19906;-61
2021/03/01 11:46:25;;;;;;;6.22;4.43;;;15.20;62.60;;;;;;4955899;28;20022;-61
2021/03/01 11:48:51;;;;;;;5.18;3.80;;;15.00;82.60;;;;;;4973241;28;20027;-61
2021/03/01 11:51:17;;;;;;;5.45;4.10;;;15.30;63.50;;;;;;4972825;28;20433;-61
2021/03/01 11:53:43;;;;;;;4.80;3.42;;;15.40;63.50;;;;;;4973156;28;20031;-61
2021/03/01 11:56:10;;;;;;;6.00;3.72;;;15.40;63.70;;;;;;4973307;28;20030;-63
2021/03/01 11:58:36;;;;;;;5.60;3.70;;;15.50;64.00;;;;;;4973172;28;20030;-62
2021/03/01 12:01:02;;;;;;;4.85;3.67;;;15.60;63.50;;;;;;4973305;28;20106;-62
2021/03/01 12:03:27;;;;;;;4.75;3.72;;;15.70;63.40;;;;;;4973073;28;20031;-62
2021/03/01 12:05:53;;;;;;;6.80;4.15;;;15.70;64.10;;;;;;4973346;28;20059;-62
2021/03/01 12:08:18;;;;;;;6.03;4.28;;;15.80;64.40;;;;;;4972766;28;20027;-62
2021/03/01 12:10:44;;;;;;;4.85;3.58;;;15.80;64.40;;;;;;4973138;28;20022;-62
2021/03/01 12:13:10;;;;;;;4.65;4.15;;;15.80;64.30;;;;;;4972775;28;20049;-63
2021/03/01 12:15:35;;;;;;;7.80;4.22;;;15.80;64.60;;;;;;4972736;28;20019;-63
2021/03/01 12:18:01;;;;;;;9.98;4.28;;;15.80;65.20;;;;;;4972870;28;20473;-63
2021/03/01 12:20:27;;;;;;;4.93;4.43;;;15.80;65.00;;;;;;4972682;28;20082;-63
2021/03/01 12:22:53;;;;;;;5.95;3.90;;;15.70;65.00;;;;;;4972671;28;20493;-63
2021/03/01 12:25:18;;;;;;;6.38;3.78;;;15.80;65.20;;;;;;4972269;28;20101;-63
2021/03/01 12:27:44;;;;;;;5.45;3.90;;;15.80;65.40;;;;;;4972436;28;20106;-63
2021/03/01 12:30:11;;;;;;;4.43;3.95;;;15.80;65.60;;;;;;4972565;28;20500;-62
2021/03/01 12:32:36;;;;;;;4.40;3.92;;;15.80;65.70;;;;;;4955094;28;20032;-63
2021/03/01 12:35:03;;;;;;;5.30;4.55;;;15.80;65.70;;;;;;4972576;28;20029;-64
2021/03/01 12:37:29;;;;;;;5.35;4.50;;;15.80;65.70;;;;;;4972740;28;20035;-63
2021/03/01 12:39:55;;;;;;;8.00;3.80;;;15.80;65.80;;;;;;4972556;28;20022;-63
2021/03/01 12:42:21;;;;;;;4.97;3.88;;;15.80;65.90;;;;;;4972425;28;20385;-63
2021/03/01 12:44:47;;;;;;;7.15;4.68;;;15.80;66.00;;;;;;4972274;28;20027;-63
2021/03/01 12:47:13;;;;;;;5.13;4.25;;;15.80;65.90;;;;;;4972701;28;20038;-63
2021/03/01 12:49:38;;;;;;;6.38;4.05;;;15.80;65.90;;;;;;4972692;28;20066;-63
2021/03/01 12:52:04;;;;;;;4.40;3.85;;;15.80;66.20;;;;;;4972398;28;20125;-63
2021/03/01 12:54:30;;;;;;;6.18;4.22;;;15.80;66.20;;;;;;4974507;28;20030;-63
2021/03/01 12:56:58;;;;;;;5.20;4.28;;;15.70;66.20;;;;;;4976017;28;20058;-63
2021/03/01 12:59:23;;;;;;;5.88;4.18;;;15.80;66.40;;;;;;4976060;28;20026;-63
2021/03/01 13:01:49;;;;;;;5.32;4.30;;;15.80;66.40;;;;;;4976064;28;20034;-63